Frilaens III — LK8780 — position and weather

sailwx.info

Track history (hours):
 
Tides and Currents Weather Stations Pressure Air Temp Water Temp Dewpoint Dewpoint Depression Visibility Wind Speed Wind Dir Waves Ship Positions

Frilaens III

Last reported at 2014-Oct-21 12:31 UTC. Time now 2014-Nov-26 12:41 UTC.
Position N 36°51' E 025°45'.
Warning: this ship's position is 36 days out of date.

Length 12 m.

Type: Sailing vessel. MMSI: 257640790.

Date/timePositionNaut miles runAvg speedWind from/ knotsBaromVisibWave heightAir tempDewpointWater temp
2014-Oct-21 12:31N 36°51' E 025°45'8 7.9
2014-Oct-21 11:33N 36°52' E 025°36'8 7.9
2014-Oct-21 10:33N 36°55' E 025°26'8 7.6
2014-Oct-21 09:26N 37°02' E 025°21'7 7.5
2014-Oct-21 08:34N 37°08' E 025°19'  
2014-Oct-17 00:33N 36°58' E 025°02'0 0.0
2014-Oct-16 11:32N 36°58' E 025°02'4 3.0
2014-Oct-16 10:11N 36°56' E 024°57'6 5.1
2014-Oct-16 09:04N 36°56' E 024°50'  
Track history (hours):
 
Tides and Currents Weather Stations Pressure Air Temp Water Temp Dewpoint Dewpoint Depression Visibility Wind Speed Wind Dir Waves Ship Positions

Frilaens III

Last reported at 2014-Oct-21 12:31 UTC. Time now 2014-Nov-26 12:41 UTC.
Position N 36°51' E 025°45'.
Warning: this ship's position is 36 days out of date.

Length 12 m.

Type: Sailing vessel. MMSI: 257640790.

Date/timePositionNaut miles runAvg speedWind from/ knotsBaromVisibWave heightAir tempDewpointWater temp
2014-Oct-21 12:31N 36°51' E 025°45'8 7.9
2014-Oct-21 11:33N 36°52' E 025°36'8 7.9
2014-Oct-21 10:33N 36°55' E 025°26'8 7.6
2014-Oct-21 09:26N 37°02' E 025°21'7 7.5
2014-Oct-21 08:34N 37°08' E 025°19'  
2014-Oct-17 00:33N 36°58' E 025°02'0 0.0
2014-Oct-16 11:32N 36°58' E 025°02'4 3.0
2014-Oct-16 10:11N 36°56' E 024°57'6 5.1
2014-Oct-16 09:04N 36°56' E 024°50'  

Dump ship's entire track history